Ciney, Belgium
Current Conditions -  °F | °C
As of 12:25 AM on Sunday 21 Dec 2014 (Local Time) from EBFS Reporting Station
Scattered Clouds Scattered Clouds  
Wind Chill: 34°   Ceiling: Unl
Heat Index: 39°   Visibility: 6mi
Dew Point: 36°   Wind: 8mph
Humidity: 87%   Direction: 270°W
Pressure: 30.42"   Gusts: NA
Location:  50.29°N, 5.1°E
Report Text: EBFS 202325Z AUTO 27007KT 9999 FEW019/// SCT028/// 04/02 Q1030 BLU
Loading
Personal Weather Stations






























Interactive Weather Map New forecast layout! Learn more

10-Day Weather Forecast

Advertisements
Track Severe Weather on mobile